createdAt,value
2017-10-25T00:02:17.773Z,816.47
2017-10-25T00:04:48.909Z,829.40
2017-10-25T00:07:17.794Z,957.00
2017-10-25T00:09:47.457Z,933.03
2017-10-25T00:12:17.468Z,871.00
2017-10-25T00:14:46.369Z,1159.77
2017-10-25T00:17:15.569Z,710.80
2017-10-25T00:19:44.462Z,915.03
2017-10-25T00:22:13.516Z,937.30
2017-10-25T00:24:42.606Z,949.70
2017-10-25T00:27:11.816Z,879.70
2017-10-25T00:29:41.438Z,743.40
2017-10-25T00:32:10.712Z,920.73
2017-10-25T00:34:40.356Z,955.67
2017-10-25T00:37:09.325Z,1027.97
2017-10-25T00:39:38.528Z,766.90
2017-10-25T00:42:08.047Z,1000.77
2017-10-25T00:44:40.040Z,991.03
2017-10-25T00:47:10.852Z,858.53
2017-10-25T00:49:39.788Z,914.17
2017-10-25T00:52:09.021Z,995.33
2017-10-25T00:54:39.181Z,960.17
2017-10-25T00:57:09.233Z,723.10
2017-10-25T00:59:39.061Z,946.93
2017-10-25T01:02:08.878Z,1000.40
2017-10-25T01:04:37.821Z,991.10
2017-10-25T01:07:07.638Z,976.07
2017-10-25T01:09:36.604Z,849.33
2017-10-25T01:12:05.555Z,783.37
2017-10-25T01:14:34.602Z,745.93
2017-10-25T01:17:04.612Z,826.73
2017-10-25T01:19:34.475Z,857.13
2017-10-25T01:22:03.600Z,662.03
2017-10-25T01:24:33.017Z,991.67
2017-10-25T01:27:02.051Z,895.23
2017-10-25T01:29:31.381Z,973.03
2017-10-25T01:32:00.477Z,795.17
2017-10-25T01:34:29.762Z,910.00
2017-10-25T01:36:58.833Z,873.67
2017-10-25T01:39:28.829Z,803.87
2017-10-25T01:41:58.563Z,717.47
2017-10-25T01:44:27.576Z,645.83
2017-10-25T01:46:57.889Z,692.63
2017-10-25T01:49:27.009Z,763.57
2017-10-25T01:51:56.356Z,662.47
2017-10-25T01:54:25.376Z,908.27
2017-10-25T01:56:54.589Z,902.07
2017-10-25T01:59:24.408Z,964.97
2017-10-25T02:01:53.860Z,971.33
2017-10-25T02:04:23.064Z,936.63
2017-10-25T02:06:52.349Z,939.77
2017-10-25T02:09:21.658Z,863.23
2017-10-25T02:11:50.972Z,907.67
2017-10-25T02:14:20.485Z,817.67
2017-10-25T02:16:49.761Z,980.43
2017-10-25T02:19:18.969Z,980.43
2017-10-25T02:21:48.177Z,815.47
2017-10-25T02:24:17.429Z,649.70
2017-10-25T02:26:47.769Z,684.57
2017-10-25T02:29:16.968Z,724.93
2017-10-25T02:31:46.296Z,695.43
2017-10-25T02:34:15.544Z,597.80
2017-10-25T02:36:45.807Z,665.57
2017-10-25T02:39:15.000Z,313.23
2017-10-25T02:41:44.544Z,377.83
2017-10-25T02:44:14.045Z,494.77
2017-10-25T02:46:43.319Z,567.07
2017-10-25T02:49:12.853Z,591.50
2017-10-25T02:51:42.020Z,772.80
2017-10-25T02:54:11.184Z,876.83
2017-10-25T02:56:40.373Z,607.87
2017-10-25T02:59:09.586Z,480.97
2017-10-25T03:01:38.773Z,244.77
2017-10-25T03:04:07.996Z,649.00
2017-10-25T03:06:37.518Z,208.57
2017-10-25T03:09:06.957Z,223.13
2017-10-25T03:11:36.964Z,297.03
2017-10-25T03:14:07.029Z,468.20
2017-10-25T03:16:37.213Z,595.07
2017-10-25T03:19:07.500Z,530.80
2017-10-25T03:21:36.836Z,674.03
2017-10-25T03:24:06.140Z,516.07
2017-10-25T03:26:35.466Z,589.57
2017-10-25T03:29:04.675Z,501.20
2017-10-25T03:31:33.905Z,301.70
2017-10-25T03:34:03.861Z,496.20
2017-10-25T03:36:33.108Z,433.43
2017-10-25T03:39:02.920Z,248.10
2017-10-25T03:41:32.292Z,456.87
2017-10-25T03:44:01.716Z,552.70
2017-10-25T03:46:31.259Z,307.97
2017-10-25T03:49:01.228Z,458.90
2017-10-25T03:51:30.666Z,187.87
2017-10-25T03:54:01.047Z,403.13
2017-10-25T03:56:30.985Z,429.07
2017-10-25T03:59:00.537Z,351.67
2017-10-25T04:01:29.708Z,518.27
2017-10-25T04:03:59.620Z,363.07
2017-10-25T04:06:29.619Z,379.20
2017-10-25T04:09:00.421Z,576.97
2017-10-25T04:11:29.697Z,564.73
2017-10-25T04:13:58.919Z,585.27
2017-10-25T04:16:28.443Z,601.23
2017-10-25T04:18:57.617Z,630.97
2017-10-25T04:21:27.059Z,595.70
2017-10-25T04:23:57.006Z,676.30
2017-10-25T04:26:26.981Z,643.80
2017-10-25T04:28:56.200Z,779.80
2017-10-25T04:31:26.202Z,755.30
2017-10-25T04:33:56.149Z,708.57
2017-10-25T04:36:25.421Z,675.93
2017-10-25T04:38:55.730Z,369.57
2017-10-25T04:41:25.023Z,495.03
2017-10-25T04:43:54.232Z,593.83
2017-10-25T04:46:24.457Z,651.87
2017-10-25T04:48:54.387Z,726.83
2017-10-25T04:51:23.627Z,868.57
2017-10-25T04:53:54.295Z,829.47
2017-10-25T04:56:24.366Z,768.03
2017-10-25T04:58:53.570Z,793.50
2017-10-25T05:01:23.123Z,708.87
2017-10-25T05:03:54.017Z,903.10
2017-10-25T05:06:24.060Z,897.43
2017-10-25T05:08:54.327Z,801.47
2017-10-25T05:11:23.585Z,955.33
2017-10-25T05:13:53.569Z,774.90
2017-10-25T05:16:23.104Z,987.53
2017-10-25T05:18:53.106Z,971.40
2017-10-25T05:21:22.744Z,1066.77
2017-10-25T05:23:53.025Z,891.07
2017-10-25T05:26:23.288Z,1187.47
2017-10-25T05:28:53.464Z,1021.77
2017-10-25T05:31:23.044Z,923.40
2017-10-25T05:33:53.309Z,686.87
2017-10-25T05:36:23.154Z,856.30
2017-10-25T05:38:52.668Z,786.43
2017-10-25T05:41:22.775Z,640.13
2017-10-25T05:43:54.314Z,567.20
2017-10-25T05:46:26.224Z,371.50
2017-10-25T05:48:56.280Z,301.20
2017-10-25T05:51:26.328Z,342.73
2017-10-25T05:53:58.715Z,367.23
2017-10-25T05:56:30.664Z,505.73
2017-10-25T05:59:00.558Z,351.07
2017-10-25T06:01:33.160Z,258.57
2017-10-25T06:04:02.617Z,429.33
2017-10-25T06:06:32.087Z,480.10
2017-10-25T06:09:01.707Z,368.47
2017-10-25T06:11:31.612Z,401.73
2017-10-25T06:14:07.444Z,539.10
2017-10-25T06:16:37.873Z,520.80
2017-10-25T06:19:07.243Z,599.33
2017-10-25T06:21:37.005Z,493.80
2017-10-25T06:24:08.852Z,488.83
2017-10-25T06:26:38.319Z,553.07
2017-10-25T06:29:08.886Z,452.93
2017-10-25T06:31:39.153Z,608.23
2017-10-25T06:34:09.182Z,583.30
2017-10-25T06:36:40.124Z,544.57
2017-10-25T06:39:12.750Z,602.03
2017-10-25T06:41:42.188Z,423.97
2017-10-25T06:44:26.201Z,438.50
2017-10-25T06:46:55.824Z,517.17
2017-10-25T06:49:25.840Z,571.87
2017-10-25T06:51:56.719Z,548.83
2017-10-25T06:54:26.363Z,643.00
2017-10-25T06:56:55.665Z,535.67
2017-10-25T06:59:29.709Z,556.57
2017-10-25T07:02:04.649Z,607.07
2017-10-25T07:04:34.773Z,414.70
2017-10-25T07:07:11.522Z,473.13
2017-10-25T07:09:43.080Z,519.83
2017-10-25T07:12:13.403Z,417.40
2017-10-25T07:14:43.500Z,579.27
2017-10-25T07:17:19.231Z,581.40
2017-10-25T07:19:49.307Z,712.57
2017-10-25T07:22:18.882Z,693.60
2017-10-25T07:24:48.266Z,787.43
2017-10-25T07:27:18.378Z,783.70
2017-10-25T07:29:47.584Z,485.67
2017-10-25T07:32:17.403Z,537.27
2017-10-25T07:34:49.851Z,755.87
2017-10-25T07:37:19.848Z,731.90
2017-10-25T07:39:49.045Z,694.30
2017-10-25T07:42:18.565Z,564.77
2017-10-25T07:44:48.898Z,399.57
2017-10-25T07:47:18.122Z,386.20
2017-10-25T07:49:50.763Z,587.73
2017-10-25T07:52:21.452Z,575.57
2017-10-25T07:54:51.542Z,642.50
2017-10-25T07:57:21.853Z,654.90
2017-10-25T07:59:52.140Z,472.33
2017-10-25T08:02:22.934Z,559.40
2017-10-25T08:04:53.195Z,470.17
2017-10-25T08:07:24.373Z,413.67
2017-10-25T08:09:54.324Z,402.60
2017-10-25T08:12:23.963Z,414.40
2017-10-25T08:14:53.349Z,580.60
2017-10-25T08:17:23.860Z,598.63
2017-10-25T08:19:53.715Z,617.40
2017-10-25T08:22:23.330Z,545.87
2017-10-25T08:24:52.644Z,631.10
2017-10-25T08:27:22.228Z,411.33
2017-10-25T08:29:51.435Z,666.60
2017-10-25T08:32:20.670Z,448.20
2017-10-25T08:34:50.226Z,451.57
2017-10-25T08:37:19.648Z,233.23
2017-10-25T08:39:49.006Z,142.03
2017-10-25T08:42:20.073Z,122.40
2017-10-25T08:44:51.673Z,224.87
2017-10-25T08:47:22.705Z,93.33
2017-10-25T08:49:53.445Z,94.17
2017-10-25T08:52:23.497Z,69.03
2017-10-25T08:54:53.177Z,60.90
2017-10-25T08:57:25.028Z,101.37
2017-10-25T08:59:54.584Z,184.97
2017-10-25T09:02:24.366Z,97.43
2017-10-25T09:07:26.448Z,49.47
2017-10-25T09:09:59.780Z,37.13
2017-10-25T09:12:29.186Z,72.03
2017-10-25T09:14:58.477Z,44.43
2017-10-25T09:17:28.787Z,42.50
2017-10-25T09:19:59.012Z,45.77
2017-10-25T09:22:30.470Z,51.07
2017-10-25T09:25:00.080Z,46.27
2017-10-25T09:27:29.400Z,42.40
2017-10-25T09:29:59.490Z,29.43
2017-10-25T09:32:29.325Z,36.97
2017-10-25T09:34:59.381Z,37.67
2017-10-25T09:37:29.300Z,29.80
2017-10-25T09:40:04.970Z,28.23
2017-10-25T09:42:37.179Z,25.73
2017-10-25T09:45:10.692Z,27.00
2017-10-25T09:47:43.614Z,24.40
2017-10-25T09:50:14.130Z,25.23
2017-10-25T09:52:44.065Z,27.27
2017-10-25T09:55:13.358Z,28.60
2017-10-25T09:57:42.618Z,37.37
2017-10-25T10:00:12.219Z,32.30
2017-10-25T10:02:43.131Z,27.97
2017-10-25T10:05:13.283Z,28.07
2017-10-25T10:07:43.673Z,33.60
2017-10-25T10:10:13.700Z,31.93
2017-10-25T10:15:10.530Z,29.63
2017-10-25T10:17:39.819Z,25.33
2017-10-25T10:20:09.816Z,24.73
2017-10-25T10:22:39.410Z,27.90
2017-10-25T10:25:08.838Z,24.87
2017-10-25T10:27:38.166Z,27.47
2017-10-25T10:30:07.744Z,29.73
2017-10-25T10:32:42.275Z,28.13
2017-10-25T10:35:11.837Z,24.97
2017-10-25T10:37:41.040Z,25.10
2017-10-25T10:40:10.360Z,21.93
2017-10-25T10:42:39.972Z,26.67
2017-10-25T10:45:09.738Z,20.90
2017-10-25T10:47:39.008Z,22.70
2017-10-25T10:50:08.425Z,26.57
2017-10-25T10:52:38.361Z,22.13
2017-10-25T10:55:09.973Z,22.40
2017-10-25T10:57:39.952Z,20.40
2017-10-25T11:00:09.516Z,19.60
2017-10-25T11:02:42.605Z,20.73
2017-10-25T11:05:12.889Z,19.57
2017-10-25T11:07:42.499Z,20.20
2017-10-25T11:10:11.882Z,22.80
2017-10-25T11:12:42.031Z,22.97
2017-10-25T11:15:11.624Z,20.63
2017-10-25T11:17:41.040Z,20.27
2017-10-25T11:20:10.722Z,18.20
2017-10-25T11:22:41.445Z,19.90
2017-10-25T11:25:10.685Z,20.27
2017-10-25T11:27:40.844Z,21.87
2017-10-25T11:30:11.496Z,18.80
2017-10-25T11:32:41.069Z,18.60
2017-10-25T11:35:11.468Z,17.90
2017-10-25T11:37:41.068Z,17.90
2017-10-25T11:40:10.289Z,18.33
2017-10-25T11:42:41.259Z,18.83
2017-10-25T11:45:11.887Z,18.03
2017-10-25T11:47:41.152Z,17.90
2017-10-25T11:50:11.172Z,17.93
2017-10-25T11:52:41.224Z,18.50
2017-10-25T11:55:10.740Z,17.23
2017-10-25T11:57:40.104Z,18.90
2017-10-25T12:00:09.684Z,17.97
2017-10-25T12:02:39.978Z,18.63
2017-10-25T12:05:09.228Z,19.07
2017-10-25T12:07:38.520Z,21.00
2017-10-25T12:10:07.712Z,17.17
2017-10-25T12:12:39.415Z,21.47
2017-10-25T12:15:09.992Z,16.30
2017-10-25T12:17:40.044Z,15.73
2017-10-25T12:20:09.691Z,15.20
2017-10-25T12:22:40.876Z,17.97
2017-10-25T12:25:10.104Z,18.07
2017-10-25T12:27:39.692Z,16.00
2017-10-25T12:30:10.581Z,17.00
2017-10-25T12:32:40.245Z,16.07
2017-10-25T12:35:11.260Z,16.17
2017-10-25T12:37:40.938Z,16.20
2017-10-25T12:40:10.277Z,17.20
2017-10-25T12:42:39.871Z,18.30
2017-10-25T12:45:09.744Z,16.93
2017-10-25T12:47:38.943Z,16.67
2017-10-25T12:50:08.889Z,16.17
2017-10-25T12:52:38.884Z,16.63
2017-10-25T12:55:09.785Z,16.20
2017-10-25T12:57:40.356Z,17.33
2017-10-25T13:00:10.587Z,18.17
2017-10-25T13:02:41.496Z,16.67
2017-10-25T13:05:11.472Z,16.23
2017-10-25T13:07:41.413Z,16.97
2017-10-25T13:18:03.462Z,17.23
2017-10-25T13:20:34.033Z,17.13
2017-10-25T13:23:03.559Z,16.17
2017-10-25T13:25:33.572Z,20.37
2017-10-25T13:28:04.297Z,16.97
2017-10-25T13:30:33.653Z,16.87
2017-10-25T13:33:03.691Z,19.17
2017-10-25T13:35:33.445Z,17.73
2017-10-25T13:38:03.436Z,21.07
2017-10-25T13:40:32.693Z,17.77
2017-10-25T13:43:01.934Z,18.57
2017-10-25T13:45:32.256Z,19.00
2017-10-25T13:48:03.380Z,19.70
2017-10-25T13:50:33.356Z,18.77
2017-10-25T13:53:03.513Z,18.87
2017-10-25T13:55:33.038Z,20.00
2017-10-25T13:58:02.579Z,20.63
2017-10-25T14:00:32.492Z,20.30
2017-10-25T14:03:02.146Z,19.67
2017-10-25T14:05:32.553Z,19.50
2017-10-25T14:08:03.821Z,20.73
2017-10-25T14:10:33.043Z,21.00
2017-10-25T14:13:03.240Z,20.77
2017-10-25T14:15:33.641Z,20.00
2017-10-25T14:18:02.994Z,23.67
2017-10-25T14:20:33.364Z,22.87
2017-10-25T14:23:02.621Z,25.80
2017-10-25T14:25:31.920Z,20.13
2017-10-25T14:29:07.921Z,22.50
2017-10-25T14:31:37.136Z,24.77
2017-10-25T14:34:06.352Z,21.83
2017-10-25T14:36:35.544Z,22.73
2017-10-25T14:39:06.573Z,23.53
2017-10-25T14:41:35.794Z,23.40
2017-10-25T14:44:05.883Z,22.10
2017-10-25T14:46:35.950Z,24.63
2017-10-25T14:49:05.316Z,24.30
2017-10-25T14:51:38.433Z,21.63
2017-10-25T14:54:07.739Z,22.67
2017-10-25T14:56:37.056Z,21.77
2017-10-25T14:59:07.032Z,22.17
2017-10-25T15:01:37.249Z,21.13
2017-10-25T15:04:07.357Z,21.63
2017-10-25T15:06:37.017Z,22.60
2017-10-25T15:09:06.755Z,21.80
2017-10-25T15:11:36.396Z,20.80
2017-10-25T15:14:06.421Z,21.17
2017-10-25T15:16:35.811Z,21.90
2017-10-25T15:19:06.013Z,21.30
2017-10-25T15:21:36.544Z,23.27
2017-10-25T15:24:07.370Z,22.63
2017-10-25T15:26:36.737Z,23.97
2017-10-25T15:29:06.077Z,25.60
2017-10-25T15:31:35.855Z,23.87
2017-10-25T15:34:05.532Z,23.70
2017-10-25T15:36:34.763Z,26.17
2017-10-25T15:39:04.623Z,25.60
2017-10-25T15:41:34.596Z,29.10
2017-10-25T15:44:04.220Z,28.10
2017-10-25T15:46:34.321Z,32.53
2017-10-25T15:49:03.583Z,33.27
2017-10-25T15:51:33.084Z,32.70
2017-10-25T15:54:03.171Z,37.53
2017-10-25T15:56:33.130Z,37.50
2017-10-25T15:59:02.972Z,36.80
2017-10-25T16:01:32.294Z,38.17
2017-10-25T16:04:02.780Z,42.80
2017-10-25T16:06:32.033Z,43.07
2017-10-25T16:09:02.017Z,42.93
2017-10-25T16:11:32.259Z,41.77
2017-10-25T16:14:01.646Z,44.57
2017-10-25T16:16:31.312Z,42.77
2017-10-25T16:19:00.547Z,40.50
2017-10-25T16:21:29.729Z,45.23
2017-10-25T16:23:59.249Z,42.60
2017-10-25T16:26:28.500Z,45.93
2017-10-25T16:28:57.760Z,46.30
2017-10-25T16:31:27.457Z,52.43
2017-10-25T16:33:57.609Z,44.97
2017-10-25T16:36:27.141Z,47.10
2017-10-25T16:38:56.380Z,54.60
2017-10-25T16:41:25.592Z,45.00
2017-10-25T16:43:55.892Z,49.80
2017-10-25T16:46:25.126Z,51.77
2017-10-25T16:48:55.085Z,51.77
2017-10-25T16:51:25.052Z,53.97
2017-10-25T16:53:55.129Z,58.77
2017-10-25T16:56:24.729Z,60.77
2017-10-25T16:58:54.683Z,63.23
2017-10-25T17:01:26.009Z,75.87
2017-10-25T17:03:56.282Z,74.73
2017-10-25T17:06:26.693Z,62.87
2017-10-25T17:08:57.240Z,77.77
2017-10-25T17:11:27.571Z,80.57
2017-10-25T17:13:56.848Z,91.10
2017-10-25T17:16:26.339Z,85.70
2017-10-25T17:18:56.319Z,72.47
2017-10-25T17:21:25.845Z,74.07
2017-10-25T17:23:55.843Z,82.80
2017-10-25T17:26:25.991Z,90.20
2017-10-25T17:28:57.725Z,101.77
2017-10-25T17:31:27.651Z,104.93
2017-10-25T17:33:57.956Z,121.10
2017-10-25T17:36:27.470Z,155.90
2017-10-25T17:38:57.569Z,240.70
2017-10-25T17:41:26.965Z,173.00
2017-10-25T17:43:58.949Z,400.63
2017-10-25T17:46:28.265Z,518.37
2017-10-25T17:48:58.213Z,61.63
2017-10-25T17:51:27.487Z,83.77
2017-10-25T17:53:56.683Z,79.30
2017-10-25T17:56:26.177Z,122.40
2017-10-25T17:58:56.197Z,70.90
2017-10-25T18:01:26.887Z,78.43
2017-10-25T18:03:56.434Z,64.80
2017-10-25T18:06:26.402Z,79.23
2017-10-25T18:08:55.635Z,142.40
2017-10-25T18:14:59.624Z,144.27
2017-10-25T18:17:28.950Z,59.50
2017-10-25T18:23:59.296Z,49.07
2017-10-25T18:26:29.894Z,47.23
2017-10-25T18:28:59.910Z,48.80
2017-10-25T18:31:29.563Z,44.57
2017-10-25T18:33:58.632Z,48.07
2017-10-25T18:36:28.553Z,39.50
2017-10-25T18:38:58.078Z,45.47
2017-10-25T18:41:31.772Z,46.50
2017-10-25T18:44:01.618Z,45.27
2017-10-25T18:46:30.651Z,50.57
2017-10-25T18:48:59.449Z,53.97
2017-10-25T18:55:05.175Z,44.30
2017-10-25T18:57:36.938Z,45.83
2017-10-25T19:00:12.340Z,50.07
2017-10-25T19:02:42.628Z,46.43
2017-10-25T19:05:11.432Z,40.47
2017-10-25T19:07:41.421Z,40.60
2017-10-25T19:10:10.951Z,39.87
2017-10-25T19:12:39.926Z,44.60
2017-10-25T19:15:08.741Z,39.60
2017-10-25T19:17:37.599Z,43.50
2017-10-25T19:20:07.403Z,44.87
2017-10-25T19:22:36.466Z,46.20
2017-10-25T19:25:06.074Z,45.10
2017-10-25T19:27:34.966Z,61.60
2017-10-25T19:30:05.162Z,52.70
2017-10-25T19:32:34.725Z,43.40
2017-10-25T19:35:04.003Z,46.93
2017-10-25T19:37:33.073Z,47.57
2017-10-25T19:40:03.210Z,44.67
2017-10-25T19:42:32.274Z,44.47
2017-10-25T19:45:02.198Z,46.17
2017-10-25T19:47:31.741Z,45.60
2017-10-25T19:50:06.617Z,53.27
2017-10-25T19:52:35.578Z,46.07
2017-10-25T19:58:40.684Z,51.07
2017-10-25T20:04:46.189Z,53.43
2017-10-25T20:07:16.219Z,47.63
2017-10-25T20:09:47.837Z,58.77
2017-10-25T20:12:16.774Z,50.97
2017-10-25T20:14:45.843Z,58.73
2017-10-25T20:17:15.016Z,51.00
2017-10-25T20:19:43.944Z,54.53
2017-10-25T20:22:12.925Z,52.40
2017-10-25T20:24:42.120Z,51.00
2017-10-25T20:27:11.081Z,51.80
2017-10-25T20:29:41.955Z,52.60
2017-10-25T20:32:11.145Z,46.90
2017-10-25T20:34:40.047Z,55.10
2017-10-25T20:37:08.989Z,48.90
2017-10-25T20:39:38.196Z,49.07
2017-10-25T20:42:07.848Z,47.10
2017-10-25T20:44:37.509Z,46.77
2017-10-25T20:47:08.615Z,47.17
2017-10-25T20:49:41.080Z,40.57
2017-10-25T20:52:12.511Z,42.07
2017-10-25T20:54:42.308Z,47.20
2017-10-25T20:57:12.408Z,46.37
2017-10-25T20:59:41.312Z,52.27
2017-10-25T21:02:10.212Z,52.20
2017-10-25T21:04:40.106Z,48.73
2017-10-25T21:07:10.406Z,43.37
2017-10-25T21:09:42.293Z,49.10
2017-10-25T21:12:11.810Z,53.50
2017-10-25T21:14:40.717Z,45.83
2017-10-25T21:17:10.389Z,44.40
2017-10-25T21:19:40.236Z,45.70
2017-10-25T21:22:10.214Z,49.60
2017-10-25T21:24:39.499Z,43.53
2017-10-25T21:27:08.369Z,45.27
2017-10-25T21:29:38.009Z,45.17
2017-10-25T21:32:06.901Z,45.53
2017-10-25T21:34:36.384Z,48.10
2017-10-25T21:37:05.380Z,48.20
2017-10-25T21:39:34.621Z,49.20
2017-10-25T21:42:03.769Z,50.40
2017-10-25T21:44:33.188Z,50.80
2017-10-25T21:47:05.205Z,51.40
2017-10-25T21:49:35.632Z,48.40
2017-10-25T21:52:05.736Z,49.07
2017-10-25T21:54:34.578Z,54.63
2017-10-25T21:57:05.236Z,58.40
2017-10-25T21:59:34.273Z,59.90
2017-10-25T22:02:03.592Z,63.13
2017-10-25T22:04:32.493Z,65.00
2017-10-25T22:07:04.178Z,81.67
2017-10-25T22:09:33.069Z,76.27
2017-10-25T22:12:02.341Z,84.03
2017-10-25T22:14:31.920Z,81.77
2017-10-25T22:17:00.760Z,106.57
2017-10-25T22:19:29.623Z,88.27
2017-10-25T22:21:58.485Z,97.90
2017-10-25T22:24:27.714Z,110.63
2017-10-25T22:26:59.462Z,79.10
2017-10-25T22:29:28.349Z,84.80
2017-10-25T22:31:57.220Z,95.10
2017-10-25T22:34:26.232Z,81.90
2017-10-25T22:36:55.132Z,81.00
2017-10-25T22:39:24.052Z,83.33
2017-10-25T22:41:53.692Z,83.83
2017-10-25T22:44:23.292Z,91.73
2017-10-25T22:46:53.800Z,74.90
2017-10-25T22:49:23.970Z,67.10
2017-10-25T22:51:52.833Z,86.13
2017-10-25T22:54:22.531Z,95.50
2017-10-25T22:56:52.147Z,72.90
2017-10-25T22:59:22.314Z,60.63
2017-10-25T23:01:51.196Z,58.03
2017-10-25T23:04:20.106Z,61.93
2017-10-25T23:06:49.019Z,65.90
2017-10-25T23:09:18.705Z,62.53
2017-10-25T23:11:47.571Z,59.17
2017-10-25T23:14:16.481Z,65.63
2017-10-25T23:16:45.395Z,63.90
2017-10-25T23:19:15.368Z,70.17
2017-10-25T23:21:44.297Z,59.40
2017-10-25T23:24:16.609Z,58.20
2017-10-25T23:26:45.820Z,66.67
2017-10-25T23:29:15.418Z,63.97
2017-10-25T23:31:44.330Z,62.80
2017-10-25T23:34:13.517Z,60.43
2017-10-25T23:36:42.417Z,58.93
2017-10-25T23:39:11.322Z,59.63
2017-10-25T23:41:41.536Z,53.23
2017-10-25T23:44:10.497Z,67.10
2017-10-25T23:46:39.337Z,67.27
2017-10-25T23:49:08.494Z,69.97
2017-10-25T23:51:37.448Z,70.60
2017-10-25T23:54:06.409Z,68.30
2017-10-25T23:56:36.035Z,78.23
2017-10-25T23:59:05.678Z,69.53
